sensor_id;sensor_type;location;lat;lon;timestamp;pressure;altitude;pressure_sealevel;temperature;humidity
4415;BME280;2220;42.670;23.398;2023-05-20T00:00:06;95809.44;;;12.67;100.00
4415;BME280;2220;42.670;23.398;2023-05-20T00:02:32;95815.53;;;12.33;100.00
4415;BME280;2220;42.670;23.398;2023-05-20T00:04:57;95824.78;;;12.41;100.00
4415;BME280;2220;42.670;23.398;2023-05-20T00:07:23;95825.41;;;12.48;100.00
4415;BME280;2220;42.670;23.398;2023-05-20T00:09:48;95824.13;;;12.51;100.00
4415;BME280;2220;42.670;23.398;2023-05-20T00:12:14;95826.97;;;12.49;100.00
4415;BME280;2220;42.670;23.398;2023-05-20T00:14:39;95821.22;;;12.47;100.00
4415;BME280;2220;42.670;23.398;2023-05-20T00:17:05;95825.88;;;12.45;100.00
4415;BME280;2220;42.670;23.398;2023-05-20T00:19:30;95829.75;;;12.43;100.00
4415;BME280;2220;42.670;23.398;2023-05-20T00:21:56;95830.91;;;12.30;100.00
4415;BME280;2220;42.670;23.398;2023-05-20T00:24:23;95821.31;;;12.36;100.00
4415;BME280;2220;42.670;23.398;2023-05-20T00:26:48;95821.06;;;12.37;100.00
4415;BME280;2220;42.670;23.398;2023-05-20T00:29:14;95827.25;;;12.31;100.00
4415;BME280;2220;42.670;23.398;2023-05-20T00:31:39;95821.31;;;12.36;100.00
4415;BME280;2220;42.670;23.398;2023-05-20T00:34:04;95825.66;;;12.30;100.00
4415;BME280;2220;42.670;23.398;2023-05-20T00:36:30;95820.44;;;12.30;100.00
4415;BME280;2220;42.670;23.398;2023-05-20T00:38:55;95817.28;;;12.28;100.00
4415;BME280;2220;42.670;23.398;2023-05-20T00:41:21;95803.19;;;12.29;100.00
4415;BME280;2220;42.670;23.398;2023-05-20T00:43:46;95808.59;;;12.22;100.00
4415;BME280;2220;42.670;23.398;2023-05-20T00:46:12;95810.06;;;12.18;100.00
4415;BME280;2220;42.670;23.398;2023-05-20T00:48:42;95801.16;;;12.14;100.00
4415;BME280;2220;42.670;23.398;2023-05-20T00:51:10;95797.25;;;12.17;100.00
4415;BME280;2220;42.670;23.398;2023-05-20T00:53:35;95791.97;;;12.12;100.00
4415;BME280;2220;42.670;23.398;2023-05-20T00:56:02;95792.03;;;12.17;100.00
4415;BME280;2220;42.670;23.398;2023-05-20T00:58:28;95803.34;;;12.22;100.00
4415;BME280;2220;42.670;23.398;2023-05-20T01:00:54;95807.63;;;12.28;100.00
4415;BME280;2220;42.670;23.398;2023-05-20T01:03:19;95789.81;;;12.25;100.00
4415;BME280;2220;42.670;23.398;2023-05-20T01:05:45;95808.25;;;12.36;100.00
4415;BME280;2220;42.670;23.398;2023-05-20T01:08:11;95810.13;;;12.40;100.00
4415;BME280;2220;42.670;23.398;2023-05-20T01:10:41;95814.88;;;12.26;100.00
4415;BME280;2220;42.670;23.398;2023-05-20T01:13:14;95818.38;;;12.32;100.00
4415;BME280;2220;42.670;23.398;2023-05-20T01:15:41;95812.63;;;12.13;100.00
4415;BME280;2220;42.670;23.398;2023-05-20T01:18:08;95809.94;;;12.08;100.00
4415;BME280;2220;42.670;23.398;2023-05-20T01:20:35;95812.63;;;11.96;100.00
4415;BME280;2220;42.670;23.398;2023-05-20T01:23:01;95802.75;;;11.98;100.00
4415;BME280;2220;42.670;23.398;2023-05-20T01:25:27;95803.13;;;12.07;100.00
4415;BME280;2220;42.670;23.398;2023-05-20T01:27:55;95805.81;;;12.12;100.00
4415;BME280;2220;42.670;23.398;2023-05-20T01:30:23;95810.41;;;12.05;100.00
4415;BME280;2220;42.670;23.398;2023-05-20T01:32:53;95814.28;;;12.02;100.00
4415;BME280;2220;42.670;23.398;2023-05-20T01:35:21;95811.91;;;12.01;100.00
4415;BME280;2220;42.670;23.398;2023-05-20T01:37:47;95817.78;;;11.91;100.00
4415;BME280;2220;42.670;23.398;2023-05-20T01:40:15;95827.97;;;11.93;100.00
4415;BME280;2220;42.670;23.398;2023-05-20T01:42:43;95817.22;;;11.89;100.00
4415;BME280;2220;42.670;23.398;2023-05-20T01:45:10;95816.81;;;11.97;100.00
4415;BME280;2220;42.670;23.398;2023-05-20T01:47:35;95820.53;;;12.01;100.00
4415;BME280;2220;42.670;23.398;2023-05-20T01:50:01;95806.81;;;11.77;100.00
4415;BME280;2220;42.670;23.398;2023-05-20T01:52:27;95804.19;;;11.77;100.00
4415;BME280;2220;42.670;23.398;2023-05-20T01:54:53;95808.28;;;11.85;100.00
4415;BME280;2220;42.670;23.398;2023-05-20T01:57:22;95805.72;;;11.73;100.00
4415;BME280;2220;42.670;23.398;2023-05-20T01:59:48;95807.34;;;11.63;100.00
4415;BME280;2220;42.670;23.398;2023-05-20T02:02:14;95804.44;;;11.76;100.00
4415;BME280;2220;42.670;23.398;2023-05-20T02:04:42;95803.53;;;11.82;100.00
4415;BME280;2220;42.670;23.398;2023-05-20T02:07:10;95797.41;;;11.76;100.00
4415;BME280;2220;42.670;23.398;2023-05-20T02:09:36;95813.97;;;11.82;100.00
4415;BME280;2220;42.670;23.398;2023-05-20T02:12:01;95816.88;;;11.86;100.00
4415;BME280;2220;42.670;23.398;2023-05-20T02:14:27;95804.63;;;11.86;100.00
4415;BME280;2220;42.670;23.398;2023-05-20T02:16:52;95797.38;;;11.88;100.00
4415;BME280;2220;42.670;23.398;2023-05-20T02:19:18;95795.28;;;11.73;100.00
4415;BME280;2220;42.670;23.398;2023-05-20T02:21:48;95793.91;;;11.71;100.00
4415;BME280;2220;42.670;23.398;2023-05-20T02:24:14;95793.84;;;11.66;100.00
4415;BME280;2220;42.670;23.398;2023-05-20T02:26:40;95788.53;;;11.61;100.00
4415;BME280;2220;42.670;23.398;2023-05-20T02:29:06;95782.84;;;11.64;100.00
4415;BME280;2220;42.670;23.398;2023-05-20T02:31:31;95782.28;;;11.62;100.00
4415;BME280;2220;42.670;23.398;2023-05-20T02:33:57;95774.69;;;11.60;100.00
4415;BME280;2220;42.670;23.398;2023-05-20T02:36:22;95764.59;;;11.47;100.00
4415;BME280;2220;42.670;23.398;2023-05-20T02:38:48;95758.91;;;11.21;100.00
4415;BME280;2220;42.670;23.398;2023-05-20T02:41:13;95752.09;;;11.20;100.00
4415;BME280;2220;42.670;23.398;2023-05-20T02:43:39;95757.72;;;11.29;100.00
4415;BME280;2220;42.670;23.398;2023-05-20T02:46:05;95766.34;;;11.30;100.00
4415;BME280;2220;42.670;23.398;2023-05-20T02:48:31;95770.88;;;11.06;100.00
4415;BME280;2220;42.670;23.398;2023-05-20T02:50:58;95773.34;;;11.12;100.00
4415;BME280;2220;42.670;23.398;2023-05-20T02:53:23;95756.00;;;11.18;100.00
4415;BME280;2220;42.670;23.398;2023-05-20T02:55:49;95752.34;;;11.19;100.00
4415;BME280;2220;42.670;23.398;2023-05-20T02:58:15;95751.88;;;11.22;100.00
4415;BME280;2220;42.670;23.398;2023-05-20T03:00:41;95746.59;;;11.17;100.00
4415;BME280;2220;42.670;23.398;2023-05-20T03:03:07;95753.75;;;11.10;100.00
4415;BME280;2220;42.670;23.398;2023-05-20T03:05:34;95748.16;;;11.18;100.00
4415;BME280;2220;42.670;23.398;2023-05-20T03:08:07;95746.19;;;11.25;100.00
4415;BME280;2220;42.670;23.398;2023-05-20T03:10:39;95733.78;;;11.15;100.00
4415;BME280;2220;42.670;23.398;2023-05-20T03:13:05;95734.47;;;11.11;100.00
4415;BME280;2220;42.670;23.398;2023-05-20T03:15:38;95735.13;;;11.18;100.00
4415;BME280;2220;42.670;23.398;2023-05-20T03:18:04;95734.19;;;11.24;100.00
4415;BME280;2220;42.670;23.398;2023-05-20T03:20:30;95737.50;;;11.19;100.00
4415;BME280;2220;42.670;23.398;2023-05-20T03:23:01;95720.78;;;11.32;100.00
4415;BME280;2220;42.670;23.398;2023-05-20T03:25:27;95710.97;;;11.39;100.00
4415;BME280;2220;42.670;23.398;2023-05-20T03:27:52;95696.25;;;11.50;100.00
4415;BME280;2220;42.670;23.398;2023-05-20T03:30:18;95693.25;;;11.58;100.00
4415;BME280;2220;42.670;23.398;2023-05-20T03:32:44;95684.16;;;11.61;100.00
4415;BME280;2220;42.670;23.398;2023-05-20T03:35:09;95687.31;;;11.63;100.00
4415;BME280;2220;42.670;23.398;2023-05-20T03:37:35;95683.06;;;11.73;100.00
4415;BME280;2220;42.670;23.398;2023-05-20T03:40:02;95682.19;;;11.85;100.00
4415;BME280;2220;42.670;23.398;2023-05-20T03:42:31;95690.88;;;11.90;100.00
4415;BME280;2220;42.670;23.398;2023-05-20T03:44:56;95690.75;;;11.80;100.00
4415;BME280;2220;42.670;23.398;2023-05-20T03:47:24;95694.28;;;11.91;100.00
4415;BME280;2220;42.670;23.398;2023-05-20T03:49:49;95690.47;;;11.98;100.00
4415;BME280;2220;42.670;23.398;2023-05-20T03:52:15;95690.22;;;12.00;100.00
4415;BME280;2220;42.670;23.398;2023-05-20T03:54:40;95687.13;;;12.03;100.00
4415;BME280;2220;42.670;23.398;2023-05-20T03:57:06;95692.97;;;12.10;100.00
4415;BME280;2220;42.670;23.398;2023-05-20T03:59:32;95698.97;;;12.11;100.00
4415;BME280;2220;42.670;23.398;2023-05-20T04:01:57;95705.22;;;12.10;100.00
4415;BME280;2220;42.670;23.398;2023-05-20T04:04:23;95714.50;;;12.00;100.00
4415;BME280;2220;42.670;23.398;2023-05-20T04:06:48;95722.34;;;12.00;100.00
4415;BME280;2220;42.670;23.398;2023-05-20T04:09:14;95732.03;;;12.22;100.00
4415;BME280;2220;42.670;23.398;2023-05-20T04:11:39;95734.06;;;12.37;100.00
4415;BME280;2220;42.670;23.398;2023-05-20T04:14:05;95732.53;;;12.41;100.00
4415;BME280;2220;42.670;23.398;2023-05-20T04:16:31;95732.06;;;12.44;100.00
4415;BME280;2220;42.670;23.398;2023-05-20T04:18:56;95731.34;;;12.48;100.00
4415;BME280;2220;42.670;23.398;2023-05-20T04:21:23;95735.16;;;12.63;100.00
4415;BME280;2220;42.670;23.398;2023-05-20T04:23:48;95735.78;;;12.70;100.00
4415;BME280;2220;42.670;23.398;2023-05-20T04:26:14;95738.81;;;12.62;100.00
4415;BME280;2220;42.670;23.398;2023-05-20T04:28:39;95747.09;;;12.75;100.00
4415;BME280;2220;42.670;23.398;2023-05-20T04:31:06;95751.81;;;12.78;100.00
4415;BME280;2220;42.670;23.398;2023-05-20T04:33:32;95757.22;;;12.72;100.00
4415;BME280;2220;42.670;23.398;2023-05-20T04:36:02;95763.91;;;12.84;100.00
4415;BME280;2220;42.670;23.398;2023-05-20T04:38:29;95775.09;;;13.02;100.00
4415;BME280;2220;42.670;23.398;2023-05-20T04:40:56;95779.75;;;13.22;100.00
4415;BME280;2220;42.670;23.398;2023-05-20T04:43:25;95777.28;;;13.32;100.00
4415;BME280;2220;42.670;23.398;2023-05-20T04:45:57;95788.25;;;13.61;100.00
4415;BME280;2220;42.670;23.398;2023-05-20T04:48:23;95791.38;;;13.58;100.00
4415;BME280;2220;42.670;23.398;2023-05-20T04:50:48;95793.75;;;13.32;100.00
4415;BME280;2220;42.670;23.398;2023-05-20T04:53:17;95798.31;;;13.47;100.00
4415;BME280;2220;42.670;23.398;2023-05-20T04:55:44;95805.72;;;13.82;100.00
4415;BME280;2220;42.670;23.398;2023-05-20T04:58:10;95807.69;;;14.02;100.00
4415;BME280;2220;42.670;23.398;2023-05-20T05:00:43;95800.94;;;14.06;100.00
4415;BME280;2220;42.670;23.398;2023-05-20T05:03:08;95813.09;;;14.27;100.00
4415;BME280;2220;42.670;23.398;2023-05-20T05:05:34;95802.72;;;14.43;100.00
4415;BME280;2220;42.670;23.398;2023-05-20T05:08:02;95790.56;;;14.26;100.00
4415;BME280;2220;42.670;23.398;2023-05-20T05:10:29;95802.97;;;14.36;100.00
4415;BME280;2220;42.670;23.398;2023-05-20T05:12:54;95798.38;;;14.53;100.00
4415;BME280;2220;42.670;23.398;2023-05-20T05:15:20;95797.03;;;14.51;100.00
4415;BME280;2220;42.670;23.398;2023-05-20T05:17:45;95790.94;;;14.40;100.00
4415;BME280;2220;42.670;23.398;2023-05-20T05:20:11;95794.72;;;14.60;100.00
4415;BME280;2220;42.670;23.398;2023-05-20T05:22:36;95783.50;;;14.69;100.00
4415;BME280;2220;42.670;23.398;2023-05-20T05:25:04;95761.50;;;14.75;100.00
4415;BME280;2220;42.670;23.398;2023-05-20T05:27:31;95747.16;;;14.98;100.00
4415;BME280;2220;42.670;23.398;2023-05-20T05:29:56;95726.72;;;15.00;100.00
4415;BME280;2220;42.670;23.398;2023-05-20T05:32:21;95705.97;;;15.04;100.00
4415;BME280;2220;42.670;23.398;2023-05-20T05:34:47;95701.28;;;15.21;100.00
4415;BME280;2220;42.670;23.398;2023-05-20T05:37:14;95681.88;;;15.17;100.00
4415;BME280;2220;42.670;23.398;2023-05-20T05:39:40;95681.88;;;15.48;100.00
4415;BME280;2220;42.670;23.398;2023-05-20T05:42:05;95661.38;;;15.60;100.00
4415;BME280;2220;42.670;23.398;2023-05-20T05:44:31;95641.97;;;15.81;100.00
4415;BME280;2220;42.670;23.398;2023-05-20T05:46:56;95620.91;;;15.91;100.00
4415;BME280;2220;42.670;23.398;2023-05-20T05:49:22;95590.34;;;16.16;100.00
4415;BME280;2220;42.670;23.398;2023-05-20T05:51:49;95571.31;;;16.34;100.00
4415;BME280;2220;42.670;23.398;2023-05-20T05:54:14;95546.97;;;16.63;100.00
4415;BME280;2220;42.670;23.398;2023-05-20T05:56:40;95525.03;;;16.83;100.00
4415;BME280;2220;42.670;23.398;2023-05-20T05:59:05;95505.00;;;16.87;100.00
4415;BME280;2220;42.670;23.398;2023-05-20T06:01:31;95502.31;;;16.92;100.00
4415;BME280;2220;42.670;23.398;2023-05-20T06:03:56;95472.50;;;17.01;100.00
4415;BME280;2220;42.670;23.398;2023-05-20T06:06:22;95459.28;;;17.06;100.00
4415;BME280;2220;42.670;23.398;2023-05-20T06:08:47;95443.34;;;17.22;100.00
4415;BME280;2220;42.670;23.398;2023-05-20T06:11:13;95433.50;;;17.32;100.00
4415;BME280;2220;42.670;23.398;2023-05-20T06:13:38;95421.91;;;17.33;100.00
4415;BME280;2220;42.670;23.398;2023-05-20T06:16:04;95423.53;;;17.48;100.00
4415;BME280;2220;42.670;23.398;2023-05-20T06:18:29;95402.66;;;17.57;100.00
4415;BME280;2220;42.670;23.398;2023-05-20T06:20:58;95405.06;;;17.53;100.00
4415;BME280;2220;42.670;23.398;2023-05-20T06:23:24;95404.97;;;17.40;100.00
4415;BME280;2220;42.670;23.398;2023-05-20T06:25:50;95424.34;;;17.73;100.00
4415;BME280;2220;42.670;23.398;2023-05-20T06:28:16;95413.19;;;18.00;100.00
4415;BME280;2220;42.670;23.398;2023-05-20T06:30:41;95399.28;;;18.13;100.00
4415;BME280;2220;42.670;23.398;2023-05-20T06:33:07;95388.22;;;18.30;100.00
4415;BME280;2220;42.670;23.398;2023-05-20T06:35:32;95379.84;;;18.41;100.00
4415;BME280;2220;42.670;23.398;2023-05-20T06:38:01;95364.38;;;18.35;100.00
4415;BME280;2220;42.670;23.398;2023-05-20T06:40:29;95351.84;;;18.27;100.00
4415;BME280;2220;42.670;23.398;2023-05-20T06:42:54;95335.63;;;18.20;100.00
4415;BME280;2220;42.670;23.398;2023-05-20T06:45:20;95334.47;;;18.26;100.00
4415;BME280;2220;42.670;23.398;2023-05-20T06:47:46;95329.31;;;18.67;100.00
4415;BME280;2220;42.670;23.398;2023-05-20T06:50:13;95303.69;;;18.67;100.00
4415;BME280;2220;42.670;23.398;2023-05-20T06:52:38;95308.66;;;18.55;100.00
4415;BME280;2220;42.670;23.398;2023-05-20T06:55:04;95290.94;;;18.42;100.00
4415;BME280;2220;42.670;23.398;2023-05-20T06:57:30;95297.13;;;18.65;100.00
4415;BME280;2220;42.670;23.398;2023-05-20T06:59:55;95321.50;;;18.76;100.00
4415;BME280;2220;42.670;23.398;2023-05-20T07:02:21;95296.47;;;18.73;100.00
4415;BME280;2220;42.670;23.398;2023-05-20T07:04:47;95274.75;;;18.62;100.00
4415;BME280;2220;42.670;23.398;2023-05-20T07:07:13;95283.97;;;18.79;100.00
4415;BME280;2220;42.670;23.398;2023-05-20T07:09:39;95284.06;;;18.87;100.00
4415;BME280;2220;42.670;23.398;2023-05-20T07:12:05;95261.56;;;18.49;100.00
4415;BME280;2220;42.670;23.398;2023-05-20T07:14:30;95293.81;;;19.00;100.00
4415;BME280;2220;42.670;23.398;2023-05-20T07:16:56;95265.75;;;19.18;100.00
4415;BME280;2220;42.670;23.398;2023-05-20T07:19:21;95239.03;;;19.20;100.00
4415;BME280;2220;42.670;23.398;2023-05-20T07:21:47;95239.34;;;19.18;100.00
4415;BME280;2220;42.670;23.398;2023-05-20T07:24:13;95204.88;;;19.23;100.00
4415;BME280;2220;42.670;23.398;2023-05-20T07:26:39;95207.38;;;19.42;100.00
4415;BME280;2220;42.670;23.398;2023-05-20T07:29:05;95195.81;;;19.52;100.00
4415;BME280;2220;42.670;23.398;2023-05-20T07:31:31;95194.47;;;19.86;100.00
4415;BME280;2220;42.670;23.398;2023-05-20T07:33:56;95176.28;;;20.15;100.00
4415;BME280;2220;42.670;23.398;2023-05-20T07:36:22;95166.47;;;20.47;100.00
4415;BME280;2220;42.670;23.398;2023-05-20T07:38:47;95120.75;;;20.15;100.00
4415;BME280;2220;42.670;23.398;2023-05-20T07:41:13;95085.44;;;20.20;100.00
4415;BME280;2220;42.670;23.398;2023-05-20T07:43:38;94998.84;;;20.51;100.00
4415;BME280;2220;42.670;23.398;2023-05-20T07:46:04;94725.09;;;20.49;100.00
4415;BME280;2220;42.670;23.398;2023-05-20T07:48:29;94663.56;;;20.60;100.00
4415;BME280;2220;42.670;23.398;2023-05-20T07:50:55;94578.19;;;20.72;100.00
4415;BME280;2220;42.670;23.398;2023-05-20T07:53:24;94523.22;;;21.11;100.00
4415;BME280;2220;42.670;23.398;2023-05-20T07:55:50;94695.78;;;20.62;100.00
4415;BME280;2220;42.670;23.398;2023-05-20T07:58:15;94748.34;;;20.73;100.00
4415;BME280;2220;42.670;23.398;2023-05-20T08:00:41;94780.72;;;20.78;100.00
4415;BME280;2220;42.670;23.398;2023-05-20T08:03:06;94855.09;;;20.21;100.00
4415;BME280;2220;42.670;23.398;2023-05-20T08:05:32;94870.00;;;20.26;100.00
4415;BME280;2220;42.670;23.398;2023-05-20T08:07:57;94881.66;;;20.16;100.00
4415;BME280;2220;42.670;23.398;2023-05-20T08:10:23;94895.78;;;20.72;100.00
4415;BME280;2220;42.670;23.398;2023-05-20T08:12:48;94941.84;;;20.80;100.00
4415;BME280;2220;42.670;23.398;2023-05-20T08:15:14;94972.25;;;21.20;100.00
4415;BME280;2220;42.670;23.398;2023-05-20T08:17:39;95010.75;;;21.27;100.00
4415;BME280;2220;42.670;23.398;2023-05-20T08:20:05;95030.41;;;20.91;100.00
4415;BME280;2220;42.670;23.398;2023-05-20T08:22:32;95062.66;;;20.76;100.00
4415;BME280;2220;42.670;23.398;2023-05-20T08:24:57;95073.88;;;20.55;100.00
4415;BME280;2220;42.670;23.398;2023-05-20T08:27:23;95078.22;;;20.51;100.00
4415;BME280;2220;42.670;23.398;2023-05-20T08:29:49;95084.28;;;20.69;100.00
4415;BME280;2220;42.670;23.398;2023-05-20T08:32:14;95080.72;;;20.74;100.00
4415;BME280;2220;42.670;23.398;2023-05-20T08:34:39;95084.31;;;20.86;100.00
4415;BME280;2220;42.670;23.398;2023-05-20T08:37:06;95067.03;;;20.46;100.00
4415;BME280;2220;42.670;23.398;2023-05-20T08:39:32;95079.50;;;20.80;100.00
4415;BME280;2220;42.670;23.398;2023-05-20T08:41:57;95089.91;;;20.85;100.00
4415;BME280;2220;42.670;23.398;2023-05-20T08:44:23;95079.78;;;20.61;100.00
4415;BME280;2220;42.670;23.398;2023-05-20T08:46:51;95071.66;;;20.40;100.00
4415;BME280;2220;42.670;23.398;2023-05-20T08:49:18;95085.66;;;20.40;100.00
4415;BME280;2220;42.670;23.398;2023-05-20T08:51:44;95092.09;;;20.65;100.00
4415;BME280;2220;42.670;23.398;2023-05-20T08:54:12;95092.72;;;20.88;100.00
4415;BME280;2220;42.670;23.398;2023-05-20T08:56:39;95098.63;;;20.77;100.00
4415;BME280;2220;42.670;23.398;2023-05-20T08:59:07;95093.63;;;20.92;100.00
4415;BME280;2220;42.670;23.398;2023-05-20T09:01:37;95095.38;;;20.80;100.00
4415;BME280;2220;42.670;23.398;2023-05-20T09:04:05;95095.22;;;21.02;100.00
4415;BME280;2220;42.670;23.398;2023-05-20T09:06:44;95095.53;;;21.18;100.00
4415;BME280;2220;42.670;23.398;2023-05-20T09:09:14;95088.97;;;20.81;100.00
4415;BME280;2220;42.670;23.398;2023-05-20T09:11:40;95091.47;;;20.77;100.00
4415;BME280;2220;42.670;23.398;2023-05-20T09:14:06;95082.09;;;20.45;100.00
4415;BME280;2220;42.670;23.398;2023-05-20T09:16:32;95076.06;;;20.71;100.00
4415;BME280;2220;42.670;23.398;2023-05-20T09:18:58;95091.94;;;20.88;100.00
4415;BME280;2220;42.670;23.398;2023-05-20T09:21:25;95080.09;;;20.51;100.00
4415;BME280;2220;42.670;23.398;2023-05-20T09:23:51;95069.38;;;20.73;100.00
4415;BME280;2220;42.670;23.398;2023-05-20T09:26:18;95057.94;;;21.16;100.00
4415;BME280;2220;42.670;23.398;2023-05-20T09:28:44;95075.41;;;21.43;100.00
4415;BME280;2220;42.670;23.398;2023-05-20T09:31:12;95085.88;;;21.77;100.00
4415;BME280;2220;42.670;23.398;2023-05-20T09:33:39;95072.59;;;21.39;100.00
4415;BME280;2220;42.670;23.398;2023-05-20T09:36:08;95067.19;;;21.10;100.00
4415;BME280;2220;42.670;23.398;2023-05-20T09:38:38;95067.47;;;21.26;100.00
4415;BME280;2220;42.670;23.398;2023-05-20T09:41:10;95061.09;;;20.92;100.00
4415;BME280;2220;42.670;23.398;2023-05-20T09:43:38;95066.38;;;21.01;100.00
4415;BME280;2220;42.670;23.398;2023-05-20T09:46:04;95066.69;;;21.16;100.00
4415;BME280;2220;42.670;23.398;2023-05-20T09:48:32;95071.66;;;21.27;100.00
4415;BME280;2220;42.670;23.398;2023-05-20T09:51:00;95057.59;;;21.52;100.00
4415;BME280;2220;42.670;23.398;2023-05-20T09:53:26;95059.63;;;21.46;100.00
4415;BME280;2220;42.670;23.398;2023-05-20T09:55:53;95059.41;;;20.96;100.00
4415;BME280;2220;42.670;23.398;2023-05-20T09:58:19;95065.00;;;20.94;100.00
4415;BME280;2220;42.670;23.398;2023-05-20T10:00:45;95059.06;;;21.06;100.00
4415;BME280;2220;42.670;23.398;2023-05-20T10:03:11;95054.91;;;21.61;100.00
4415;BME280;2220;42.670;23.398;2023-05-20T10:06:35;95056.19;;;21.55;100.00
4415;BME280;2220;42.670;23.398;2023-05-20T10:11:20;95053.38;;;21.60;100.00
4415;BME280;2220;42.670;23.398;2023-05-20T10:19:26;95046.50;;;21.59;100.00
4415;BME280;2220;42.670;23.398;2023-05-20T10:22:07;95057.69;;;22.02;97.77
4415;BME280;2220;42.670;23.398;2023-05-20T10:24:35;95054.22;;;22.19;94.49
4415;BME280;2220;42.670;23.398;2023-05-20T10:27:04;95058.63;;;22.15;91.55
4415;BME280;2220;42.670;23.398;2023-05-20T10:29:48;95055.78;;;21.82;92.00
4415;BME280;2220;42.670;23.398;2023-05-20T10:32:31;95061.78;;;21.62;88.59
4415;BME280;2220;42.670;23.398;2023-05-20T10:35:01;95064.53;;;22.12;91.41
4415;BME280;2220;42.670;23.398;2023-05-20T10:37:39;95049.63;;;21.61;88.81
4415;BME280;2220;42.670;23.398;2023-05-20T10:40:07;95042.13;;;21.63;94.91
4415;BME280;2220;42.670;23.398;2023-05-20T10:42:33;95040.81;;;21.77;90.52
4415;BME280;2220;42.670;23.398;2023-05-20T10:44:58;95037.88;;;21.70;91.39
4415;BME280;2220;42.670;23.398;2023-05-20T10:47:24;95032.41;;;21.75;93.55
4415;BME280;2220;42.670;23.398;2023-05-20T10:49:51;95030.19;;;21.86;89.65
4415;BME280;2220;42.670;23.398;2023-05-20T10:52:17;95033.28;;;21.88;91.93
4415;BME280;2220;42.670;23.398;2023-05-20T10:55:02;95019.91;;;22.05;92.48
4415;BME280;2220;42.670;23.398;2023-05-20T10:57:29;95040.41;;;21.96;90.41
4415;BME280;2220;42.670;23.398;2023-05-20T10:59:56;95023.00;;;21.87;89.04
4415;BME280;2220;42.670;23.398;2023-05-20T11:02:22;95036.75;;;21.42;87.64
4415;BME280;2220;42.670;23.398;2023-05-20T11:04:51;95050.47;;;21.35;87.39
4415;BME280;2220;42.670;23.398;2023-05-20T11:07:26;95023.84;;;21.70;86.86
4415;BME280;2220;42.670;23.398;2023-05-20T11:09:53;95010.34;;;21.92;84.85
4415;BME280;2220;42.670;23.398;2023-05-20T11:12:20;95003.47;;;22.21;85.23
4415;BME280;2220;42.670;23.398;2023-05-20T11:14:48;95010.41;;;22.34;85.21
4415;BME280;2220;42.670;23.398;2023-05-20T11:17:14;95022.13;;;22.75;84.19
4415;BME280;2220;42.670;23.398;2023-05-20T11:19:40;95021.81;;;22.55;83.32
4415;BME280;2220;42.670;23.398;2023-05-20T11:22:09;95026.53;;;22.71;83.40
4415;BME280;2220;42.670;23.398;2023-05-20T11:24:34;95000.00;;;22.50;87.72
4415;BME280;2220;42.670;23.398;2023-05-20T11:27:00;95009.88;;;23.03;84.30
4415;BME280;2220;42.670;23.398;2023-05-20T11:29:27;94996.63;;;22.41;80.49
4415;BME280;2220;42.670;23.398;2023-05-20T11:31:54;95010.53;;;22.17;82.27
4415;BME280;2220;42.670;23.398;2023-05-20T11:34:23;95001.59;;;22.21;82.87
4415;BME280;2220;42.670;23.398;2023-05-20T11:36:57;94988.19;;;22.59;82.12
4415;BME280;2220;42.670;23.398;2023-05-20T11:39:24;94983.34;;;23.15;80.32
4415;BME280;2220;42.670;23.398;2023-05-20T11:41:51;94986.50;;;22.97;81.08
4415;BME280;2220;42.670;23.398;2023-05-20T11:44:19;94989.06;;;22.84;80.68
4415;BME280;2220;42.670;23.398;2023-05-20T11:46:46;94989.00;;;22.39;81.79
4415;BME280;2220;42.670;23.398;2023-05-20T11:49:15;94973.09;;;22.39;81.59
4415;BME280;2220;42.670;23.398;2023-05-20T11:51:42;94991.56;;;22.27;81.88
4415;BME280;2220;42.670;23.398;2023-05-20T11:54:08;94988.59;;;22.08;86.81
4415;BME280;2220;42.670;23.398;2023-05-20T11:56:38;94983.41;;;22.11;87.24
4415;BME280;2220;42.670;23.398;2023-05-20T11:59:07;94951.75;;;22.06;87.78
4415;BME280;2220;42.670;23.398;2023-05-20T12:01:36;94976.59;;;21.72;93.17
4415;BME280;2220;42.670;23.398;2023-05-20T12:04:05;94972.94;;;21.56;96.30
4415;BME280;2220;42.670;23.398;2023-05-20T12:06:31;94957.84;;;21.77;92.80
4415;BME280;2220;42.670;23.398;2023-05-20T12:09:00;94961.06;;;21.62;93.31
4415;BME280;2220;42.670;23.398;2023-05-20T12:11:31;94970.41;;;21.12;99.61
4415;BME280;2220;42.670;23.398;2023-05-20T12:13:56;94979.50;;;20.94;99.52
4415;BME280;2220;42.670;23.398;2023-05-20T12:16:21;94955.69;;;20.77;98.07
4415;BME280;2220;42.670;23.398;2023-05-20T12:18:47;94968.00;;;20.81;100.00
4415;BME280;2220;42.670;23.398;2023-05-20T12:21:12;94970.00;;;21.02;100.00
4415;BME280;2220;42.670;23.398;2023-05-20T12:23:38;94979.59;;;21.15;99.63
4415;BME280;2220;42.670;23.398;2023-05-20T12:26:03;94964.44;;;21.24;100.00
4415;BME280;2220;42.670;23.398;2023-05-20T12:28:29;94993.03;;;21.10;100.00
4415;BME280;2220;42.670;23.398;2023-05-20T12:30:56;94977.97;;;20.76;98.34
4415;BME280;2220;42.670;23.398;2023-05-20T12:33:21;95004.28;;;20.63;99.48
4415;BME280;2220;42.670;23.398;2023-05-20T12:35:47;95004.28;;;20.37;100.00
4415;BME280;2220;42.670;23.398;2023-05-20T12:38:12;95010.97;;;20.52;100.00
4415;BME280;2220;42.670;23.398;2023-05-20T12:40:38;95004.31;;;20.46;98.99
4415;BME280;2220;42.670;23.398;2023-05-20T12:43:03;95011.25;;;20.25;95.09
4415;BME280;2220;42.670;23.398;2023-05-20T12:45:29;95019.66;;;20.27;95.93
4415;BME280;2220;42.670;23.398;2023-05-20T12:47:55;95024.06;;;20.49;95.88
4415;BME280;2220;42.670;23.398;2023-05-20T12:50:22;95011.13;;;20.90;100.00
4415;BME280;2220;42.670;23.398;2023-05-20T12:52:48;94997.34;;;21.32;95.62
4415;BME280;2220;42.670;23.398;2023-05-20T12:55:13;95002.72;;;21.53;93.95
4415;BME280;2220;42.670;23.398;2023-05-20T12:57:39;95002.56;;;21.87;95.46
4415;BME280;2220;42.670;23.398;2023-05-20T13:00:07;94991.59;;;22.48;93.35
4415;BME280;2220;42.670;23.398;2023-05-20T13:02:32;94988.09;;;22.35;96.87
4415;BME280;2220;42.670;23.398;2023-05-20T13:04:58;94989.63;;;22.36;95.71
4415;BME280;2220;42.670;23.398;2023-05-20T13:07:24;94984.75;;;22.47;91.29